This is the latest recevied weather packets stored in our database for station/object SP3SWJ-13. If no packets are shown the sender has not sent any weather packets the latest 1 day(s).
| Time | Temp. | Humidity | Pressure | Rain* | Wind** | Luminosity | Snow |
|---|---|---|---|---|---|---|---|
| 1778060676 | 16.11° C | 64% | 995.7 hPa | - | - | 696 W/m² | - |
| 1778060375 | 15.56° C | 67% | 995.8 hPa | - | - | 600 W/m² | - |
| 1778060074 | 15° C | 69% | 995.9 hPa | - | - | 215 W/m² | - |
| 1778059773 | 15° C | 69% | 996 hPa | - | - | 123 W/m² | - |
| 1778059171 | 15.56° C | 67% | 995.8 hPa | - | - | 179 W/m² | - |
| 1778058870 | 15.56° C | 66% | 995.8 hPa | - | - | 257 W/m² | - |
| 1778056764 | 15° C | 68% | 995.8 hPa | - | - | 177 W/m² | - |
| 1778056162 | 15.56° C | 66% | 995.8 hPa | - | - | 181 W/m² | - |
| 1778055861 | 15.56° C | 64% | 995.7 hPa | - | - | 228 W/m² | - |
| 1778055560 | 15.56° C | 65% | 995.8 hPa | - | - | 346 W/m² | - |
| 1778054958 | 15.56° C | 65% | 995.7 hPa | - | - | 368 W/m² | - |
| 1778054657 | 15° C | 66% | 995.6 hPa | - | - | 277 W/m² | - |
| 1778054356 | 14.44° C | 69% | 995.4 hPa | - | - | 504 W/m² | - |
| 1778054055 | 13.89° C | 69% | 995.4 hPa | - | - | 484 W/m² | - |
| 1778053754 | 13.33° C | 71% | 995.6 hPa | - | - | 481 W/m² | - |
| 1778053153 | 13.33° C | 72% | 995.6 hPa | - | - | 159 W/m² | - |
| 1778052852 | 12.78° C | 76% | 995.5 hPa | - | - | 344 W/m² | - |
| 1778052551 | 12.78° C | 76% | 995.6 hPa | - | - | 149 W/m² | - |
| 1778052250 | 12.78° C | 78% | 995.6 hPa | - | - | 119 W/m² | - |
| 1778051649 | 12.22° C | 79% | 995.8 hPa | - | - | 121 W/m² | - |
| 1778051347 | 12.78° C | 77% | 995.9 hPa | - | - | 161 W/m² | - |
| 1778050143 | 11.67° C | 82% | 995.5 hPa | - | - | 126 W/m² | - |
| 1778049241 | 11.67° C | 83% | 995.3 hPa | - | - | 50 W/m² | - |
| 1778048940 | 11.67° C | 81% | 995.3 hPa | - | - | 49 W/m² | - |
| 1778047736 | 11.67° C | 81% | 995.5 hPa | - | - | 50 W/m² | - |
* Rain since midnight (hover to see other rain measurements)
** Current wind speed in m/s (hover to see current wind gust speed)